sensor_id;sensor_type;location;lat;lon;timestamp;temperature;humidity
23723;DHT22;12042;52.136;5.584;2023-02-15T06:52:43;1.30;99.90
23723;DHT22;12042;52.136;5.584;2023-02-15T06:55:09;1.30;99.90
23723;DHT22;12042;52.136;5.584;2023-02-15T06:57:35;1.30;99.90
23723;DHT22;12042;52.136;5.584;2023-02-15T07:00:02;1.30;99.90
23723;DHT22;12042;52.136;5.584;2023-02-15T07:02:30;1.30;99.90
23723;DHT22;12042;52.136;5.584;2023-02-15T07:04:56;1.30;99.90
23723;DHT22;12042;52.136;5.584;2023-02-15T07:07:23;1.40;99.90
23723;DHT22;12042;52.136;5.584;2023-02-15T07:09:48;1.40;99.90
23723;DHT22;12042;52.136;5.584;2023-02-15T07:12:14;1.40;99.90
23723;DHT22;12042;52.136;5.584;2023-02-15T07:14:58;1.50;99.90
23723;DHT22;12042;52.136;5.584;2023-02-15T07:17:24;1.60;99.90
23723;DHT22;12042;52.136;5.584;2023-02-15T07:19:54;1.70;99.90
23723;DHT22;12042;52.136;5.584;2023-02-15T07:22:19;1.80;99.90
23723;DHT22;12042;52.136;5.584;2023-02-15T07:24:46;2.00;99.90
23723;DHT22;12042;52.136;5.584;2023-02-15T07:27:12;2.00;99.90
23723;DHT22;12042;52.136;5.584;2023-02-15T07:29:38;2.10;99.90
23723;DHT22;12042;52.136;5.584;2023-02-15T07:32:03;2.20;99.90
23723;DHT22;12042;52.136;5.584;2023-02-15T07:34:29;2.20;99.90
23723;DHT22;12042;52.136;5.584;2023-02-15T07:36:54;2.30;99.90
23723;DHT22;12042;52.136;5.584;2023-02-15T07:39:20;2.30;99.90
23723;DHT22;12042;52.136;5.584;2023-02-15T07:41:46;2.40;99.90
23723;DHT22;12042;52.136;5.584;2023-02-15T07:44:13;2.50;99.90
23723;DHT22;12042;52.136;5.584;2023-02-15T07:46:39;2.50;99.90
23723;DHT22;12042;52.136;5.584;2023-02-15T07:49:04;2.60;99.90
23723;DHT22;12042;52.136;5.584;2023-02-15T07:51:30;2.60;99.90
23723;DHT22;12042;52.136;5.584;2023-02-15T07:53:55;2.70;99.90
23723;DHT22;12042;52.136;5.584;2023-02-15T07:56:21;2.70;99.90
23723;DHT22;12042;52.136;5.584;2023-02-15T07:58:47;2.80;99.90
23723;DHT22;12042;52.136;5.584;2023-02-15T08:01:23;2.80;99.90
23723;DHT22;12042;52.136;5.584;2023-02-15T08:03:49;2.90;99.90
23723;DHT22;12042;52.136;5.584;2023-02-15T08:06:26;2.90;99.90
23723;DHT22;12042;52.136;5.584;2023-02-15T08:08:59;3.00;99.90
23723;DHT22;12042;52.136;5.584;2023-02-15T08:11:32;3.10;99.90
23723;DHT22;12042;52.136;5.584;2023-02-15T08:14:13;3.10;99.90
23723;DHT22;12042;52.136;5.584;2023-02-15T08:16:51;3.20;99.90
23723;DHT22;12042;52.136;5.584;2023-02-15T08:24:16;3.30;99.90
23723;DHT22;12042;52.136;5.584;2023-02-15T08:26:43;3.30;99.90
23723;DHT22;12042;52.136;5.584;2023-02-15T08:29:13;3.30;99.90
23723;DHT22;12042;52.136;5.584;2023-02-15T08:31:39;3.30;99.90
23723;DHT22;12042;52.136;5.584;2023-02-15T08:34:08;3.40;99.90
23723;DHT22;12042;52.136;5.584;2023-02-15T08:36:34;3.40;99.90
23723;DHT22;12042;52.136;5.584;2023-02-15T08:39:03;3.50;99.90
23723;DHT22;12042;52.136;5.584;2023-02-15T08:41:31;3.60;99.90
23723;DHT22;12042;52.136;5.584;2023-02-15T08:44:02;3.60;99.90
23723;DHT22;12042;52.136;5.584;2023-02-15T08:46:30;3.80;99.90
23723;DHT22;12042;52.136;5.584;2023-02-15T08:48:58;3.90;99.90
23723;DHT22;12042;52.136;5.584;2023-02-15T08:51:26;4.00;99.90
23723;DHT22;12042;52.136;5.584;2023-02-15T08:53:54;4.00;99.90
23723;DHT22;12042;52.136;5.584;2023-02-15T08:56:32;4.10;99.90
23723;DHT22;12042;52.136;5.584;2023-02-15T08:59:01;4.10;99.90
23723;DHT22;12042;52.136;5.584;2023-02-15T09:01:31;4.10;99.90
23723;DHT22;12042;52.136;5.584;2023-02-15T09:04:02;4.30;99.90
23723;DHT22;12042;52.136;5.584;2023-02-15T09:06:29;4.40;99.90
23723;DHT22;12042;52.136;5.584;2023-02-15T09:08:55;4.50;99.90
23723;DHT22;12042;52.136;5.584;2023-02-15T09:11:27;4.60;99.90
23723;DHT22;12042;52.136;5.584;2023-02-15T09:13:55;4.80;99.90
23723;DHT22;12042;52.136;5.584;2023-02-15T09:16:22;4.90;99.90
23723;DHT22;12042;52.136;5.584;2023-02-15T09:18:48;5.00;99.90
23723;DHT22;12042;52.136;5.584;2023-02-15T09:21:16;5.10;99.90
23723;DHT22;12042;52.136;5.584;2023-02-15T09:23:44;5.30;99.90
23723;DHT22;12042;52.136;5.584;2023-02-15T09:26:12;5.30;99.90
23723;DHT22;12042;52.136;5.584;2023-02-15T09:28:39;5.30;99.90
23723;DHT22;12042;52.136;5.584;2023-02-15T09:31:10;5.40;99.90
23723;DHT22;12042;52.136;5.584;2023-02-15T09:33:37;5.40;99.90
23723;DHT22;12042;52.136;5.584;2023-02-15T09:36:04;5.40;99.90
23723;DHT22;12042;52.136;5.584;2023-02-15T09:38:31;5.50;99.90
23723;DHT22;12042;52.136;5.584;2023-02-15T09:55:56;5.80;99.90
23723;DHT22;12042;52.136;5.584;2023-02-15T09:58:41;5.90;99.90
23723;DHT22;12042;52.136;5.584;2023-02-15T10:04:19;6.00;99.90
23723;DHT22;12042;52.136;5.584;2023-02-15T10:15:31;6.10;99.90
23723;DHT22;12042;52.136;5.584;2023-02-15T10:18:03;6.10;99.90
23723;DHT22;12042;52.136;5.584;2023-02-15T10:29:50;6.50;99.90
23723;DHT22;12042;52.136;5.584;2023-02-15T10:32:04;6.60;99.90
23723;DHT22;12042;52.136;5.584;2023-02-15T10:34:51;6.60;99.90
23723;DHT22;12042;52.136;5.584;2023-02-15T10:42:55;7.00;99.90
23723;DHT22;12042;52.136;5.584;2023-02-15T10:45:49;7.20;99.90
23723;DHT22;12042;52.136;5.584;2023-02-15T10:51:04;7.40;99.90
23723;DHT22;12042;52.136;5.584;2023-02-15T10:53:56;7.50;99.90
23723;DHT22;12042;52.136;5.584;2023-02-15T10:56:36;7.70;99.90
23723;DHT22;12042;52.136;5.584;2023-02-15T11:01:43;8.00;99.90
23723;DHT22;12042;52.136;5.584;2023-02-15T11:07:16;8.20;99.90
23723;DHT22;12042;52.136;5.584;2023-02-15T11:10:00;8.20;99.90
23723;DHT22;12042;52.136;5.584;2023-02-15T11:12:28;8.30;99.90
23723;DHT22;12042;52.136;5.584;2023-02-15T11:15:03;8.30;99.90
23723;DHT22;12042;52.136;5.584;2023-02-15T11:17:58;8.50;99.90
23723;DHT22;12042;52.136;5.584;2023-02-15T11:20:31;8.60;99.90
23723;DHT22;12042;52.136;5.584;2023-02-15T11:22:59;8.70;99.90
23723;DHT22;12042;52.136;5.584;2023-02-15T11:25:31;8.80;99.90
23723;DHT22;12042;52.136;5.584;2023-02-15T11:28:00;9.00;99.90
23723;DHT22;12042;52.136;5.584;2023-02-15T11:30:40;9.00;99.90
23723;DHT22;12042;52.136;5.584;2023-02-15T11:33:18;9.10;99.90
23723;DHT22;12042;52.136;5.584;2023-02-15T11:38:28;9.40;99.90
23723;DHT22;12042;52.136;5.584;2023-02-15T11:40:59;9.50;99.90
23723;DHT22;12042;52.136;5.584;2023-02-15T11:43:50;9.70;99.90
23723;DHT22;12042;52.136;5.584;2023-02-15T11:46:18;9.70;99.90
23723;DHT22;12042;52.136;5.584;2023-02-15T11:48:49;9.80;99.90
23723;DHT22;12042;52.136;5.584;2023-02-15T11:51:17;9.90;99.90
23723;DHT22;12042;52.136;5.584;2023-02-15T11:53:45;10.10;99.90
23723;DHT22;12042;52.136;5.584;2023-02-15T11:56:24;10.20;99.90
23723;DHT22;12042;52.136;5.584;2023-02-15T11:59:01;10.20;99.90
23723;DHT22;12042;52.136;5.584;2023-02-15T12:01:35;10.00;99.90
23723;DHT22;12042;52.136;5.584;2023-02-15T12:04:06;10.10;99.90
23723;DHT22;12042;52.136;5.584;2023-02-15T12:06:48;10.20;99.90
23723;DHT22;12042;52.136;5.584;2023-02-15T12:09:27;10.20;99.90
23723;DHT22;12042;52.136;5.584;2023-02-15T12:14:51;10.30;99.90
23723;DHT22;12042;52.136;5.584;2023-02-15T12:17:17;10.20;99.90
23723;DHT22;12042;52.136;5.584;2023-02-15T12:19:43;10.20;99.90
23723;DHT22;12042;52.136;5.584;2023-02-15T12:22:20;10.30;99.90
23723;DHT22;12042;52.136;5.584;2023-02-15T12:24:48;10.40;99.90
23723;DHT22;12042;52.136;5.584;2023-02-15T12:27:22;10.50;99.90
23723;DHT22;12042;52.136;5.584;2023-02-15T12:29:50;10.60;99.90
23723;DHT22;12042;52.136;5.584;2023-02-15T12:32:54;10.70;99.90
23723;DHT22;12042;52.136;5.584;2023-02-15T12:35:33;10.80;99.90
23723;DHT22;12042;52.136;5.584;2023-02-15T12:40:35;10.80;99.90
23723;DHT22;12042;52.136;5.584;2023-02-15T12:43:01;10.90;99.90
23723;DHT22;12042;52.136;5.584;2023-02-15T12:45:35;11.00;99.90
23723;DHT22;12042;52.136;5.584;2023-02-15T12:48:18;11.00;99.90
23723;DHT22;12042;52.136;5.584;2023-02-15T12:50:48;11.30;99.90
23723;DHT22;12042;52.136;5.584;2023-02-15T12:53:32;11.50;99.90
23723;DHT22;12042;52.136;5.584;2023-02-15T12:56:06;11.50;99.90
23723;DHT22;12042;52.136;5.584;2023-02-15T12:58:33;11.50;99.90
23723;DHT22;12042;52.136;5.584;2023-02-15T13:03:55;11.90;99.90
23723;DHT22;12042;52.136;5.584;2023-02-15T13:06:22;12.00;99.90
23723;DHT22;12042;52.136;5.584;2023-02-15T13:08:56;12.20;99.90
23723;DHT22;12042;52.136;5.584;2023-02-15T13:11:27;12.10;99.90
23723;DHT22;12042;52.136;5.584;2023-02-15T13:13:58;12.00;99.90
23723;DHT22;12042;52.136;5.584;2023-02-15T13:16:35;12.00;99.90
23723;DHT22;12042;52.136;5.584;2023-02-15T13:19:27;12.00;99.90
23723;DHT22;12042;52.136;5.584;2023-02-15T13:21:56;12.00;99.90
23723;DHT22;12042;52.136;5.584;2023-02-15T13:24:44;12.00;99.90
23723;DHT22;12042;52.136;5.584;2023-02-15T13:27:15;12.00;99.90
23723;DHT22;12042;52.136;5.584;2023-02-15T13:29:44;12.00;99.90
23723;DHT22;12042;52.136;5.584;2023-02-15T13:32:34;12.00;99.90
23723;DHT22;12042;52.136;5.584;2023-02-15T13:35:04;12.10;99.90
23723;DHT22;12042;52.136;5.584;2023-02-15T13:40:22;11.90;99.90
23723;DHT22;12042;52.136;5.584;2023-02-15T13:48:19;11.60;99.90
23723;DHT22;12042;52.136;5.584;2023-02-15T13:56:52;11.40;99.90
23723;DHT22;12042;52.136;5.584;2023-02-15T13:59:41;11.50;99.90
23723;DHT22;12042;52.136;5.584;2023-02-15T14:03:12;11.70;99.90
23723;DHT22;12042;52.136;5.584;2023-02-15T14:08:11;11.80;99.90
23723;DHT22;12042;52.136;5.584;2023-02-15T14:11:15;11.90;99.90
23723;DHT22;12042;52.136;5.584;2023-02-15T14:13:58;11.90;99.90
23723;DHT22;12042;52.136;5.584;2023-02-15T14:16:33;11.90;99.90
23723;DHT22;12042;52.136;5.584;2023-02-15T14:19:28;11.90;99.90
23723;DHT22;12042;52.136;5.584;2023-02-15T14:22:00;12.00;99.90
23723;DHT22;12042;52.136;5.584;2023-02-15T14:25:28;12.00;99.90
23723;DHT22;12042;52.136;5.584;2023-02-15T14:27:49;12.00;99.90
23723;DHT22;12042;52.136;5.584;2023-02-15T14:30:28;12.10;99.90
23723;DHT22;12042;52.136;5.584;2023-02-15T14:33:08;12.20;99.90
23723;DHT22;12042;52.136;5.584;2023-02-15T14:35:54;12.20;99.90
23723;DHT22;12042;52.136;5.584;2023-02-15T14:41:28;12.30;99.90
23723;DHT22;12042;52.136;5.584;2023-02-15T14:47:01;12.30;99.90
23723;DHT22;12042;52.136;5.584;2023-02-15T14:49:32;12.40;99.90
23723;DHT22;12042;52.136;5.584;2023-02-15T14:52:07;12.30;99.90
23723;DHT22;12042;52.136;5.584;2023-02-15T15:04:38;12.10;99.90
23723;DHT22;12042;52.136;5.584;2023-02-15T15:07:21;12.20;99.90
23723;DHT22;12042;52.136;5.584;2023-02-15T15:10:33;12.10;99.90
23723;DHT22;12042;52.136;5.584;2023-02-15T15:12:44;12.00;99.90
23723;DHT22;12042;52.136;5.584;2023-02-15T15:15:47;12.00;99.90
23723;DHT22;12042;52.136;5.584;2023-02-15T15:18:08;11.90;99.90
23723;DHT22;12042;52.136;5.584;2023-02-15T15:25:58;11.80;99.90
23723;DHT22;12042;52.136;5.584;2023-02-15T15:36:22;12.00;99.90
23723;DHT22;12042;52.136;5.584;2023-02-15T15:48:31;12.00;99.90
23723;DHT22;12042;52.136;5.584;2023-02-15T15:51:30;12.00;99.90
23723;DHT22;12042;52.136;5.584;2023-02-15T15:53:56;12.10;99.90
23723;DHT22;12042;52.136;5.584;2023-02-15T15:56:35;12.00;99.90
23723;DHT22;12042;52.136;5.584;2023-02-15T15:59:21;11.90;99.90
23723;DHT22;12042;52.136;5.584;2023-02-15T16:01:48;11.90;99.90
23723;DHT22;12042;52.136;5.584;2023-02-15T16:04:23;11.90;99.90
23723;DHT22;12042;52.136;5.584;2023-02-15T16:06:50;11.80;99.90
23723;DHT22;12042;52.136;5.584;2023-02-15T16:09:26;11.70;99.90
23723;DHT22;12042;52.136;5.584;2023-02-15T16:11:56;11.70;99.90
23723;DHT22;12042;52.136;5.584;2023-02-15T16:14:37;11.80;99.90
23723;DHT22;12042;52.136;5.584;2023-02-15T16:17:36;11.80;99.90
23723;DHT22;12042;52.136;5.584;2023-02-15T16:20:25;11.70;99.90
23723;DHT22;12042;52.136;5.584;2023-02-15T16:23:07;11.60;99.90
23723;DHT22;12042;52.136;5.584;2023-02-15T16:26:03;11.50;99.90
23723;DHT22;12042;52.136;5.584;2023-02-15T16:28:32;11.40;99.90
23723;DHT22;12042;52.136;5.584;2023-02-15T16:31:24;11.30;99.90
23723;DHT22;12042;52.136;5.584;2023-02-15T16:33:54;11.20;99.90
23723;DHT22;12042;52.136;5.584;2023-02-15T16:36:28;11.10;99.90
23723;DHT22;12042;52.136;5.584;2023-02-15T16:41:23;11.10;99.90
23723;DHT22;12042;52.136;5.584;2023-02-15T16:43:50;11.20;99.90
23723;DHT22;12042;52.136;5.584;2023-02-15T16:48:46;11.10;99.90
23723;DHT22;12042;52.136;5.584;2023-02-15T16:51:21;11.20;99.90
23723;DHT22;12042;52.136;5.584;2023-02-15T16:53:48;11.20;99.90
23723;DHT22;12042;52.136;5.584;2023-02-15T16:56:14;11.10;99.90
23723;DHT22;12042;52.136;5.584;2023-02-15T16:58:43;11.00;99.90
23723;DHT22;12042;52.136;5.584;2023-02-15T17:01:13;11.00;99.90
23723;DHT22;12042;52.136;5.584;2023-02-15T17:03:40;11.10;99.90
23723;DHT22;12042;52.136;5.584;2023-02-15T17:06:23;10.80;99.90
23723;DHT22;12042;52.136;5.584;2023-02-15T17:08:51;10.70;99.90
23723;DHT22;12042;52.136;5.584;2023-02-15T17:11:19;10.70;99.90
23723;DHT22;12042;52.136;5.584;2023-02-15T17:19:19;10.50;99.90
23723;DHT22;12042;52.136;5.584;2023-02-15T17:21:57;10.40;99.90
23723;DHT22;12042;52.136;5.584;2023-02-15T17:24:37;10.20;99.90
23723;DHT22;12042;52.136;5.584;2023-02-15T17:27:19;10.20;99.90
23723;DHT22;12042;52.136;5.584;2023-02-15T17:29:50;10.10;99.90
23723;DHT22;12042;52.136;5.584;2023-02-15T17:32:26;10.20;99.90
23723;DHT22;12042;52.136;5.584;2023-02-15T17:42:52;10.00;99.90
23723;DHT22;12042;52.136;5.584;2023-02-15T17:45:19;10.10;99.90
23723;DHT22;12042;52.136;5.584;2023-02-15T17:47:46;10.00;99.90
23723;DHT22;12042;52.136;5.584;2023-02-15T17:50:27;10.00;99.90
23723;DHT22;12042;52.136;5.584;2023-02-15T17:52:54;9.90;99.90
23723;DHT22;12042;52.136;5.584;2023-02-15T17:55:24;9.90;99.90
23723;DHT22;12042;52.136;5.584;2023-02-15T17:58:13;9.90;99.90
23723;DHT22;12042;52.136;5.584;2023-02-15T18:00:58;9.90;99.90
23723;DHT22;12042;52.136;5.584;2023-02-15T18:03:47;9.90;99.90
23723;DHT22;12042;52.136;5.584;2023-02-15T18:06:32;9.90;99.90
23723;DHT22;12042;52.136;5.584;2023-02-15T18:09:20;9.90;99.90
23723;DHT22;12042;52.136;5.584;2023-02-15T18:12:28;9.90;99.90
23723;DHT22;12042;52.136;5.584;2023-02-15T18:14:55;9.80;99.90
23723;DHT22;12042;52.136;5.584;2023-02-15T18:19:58;9.80;99.90
23723;DHT22;12042;52.136;5.584;2023-02-15T18:22:27;9.60;99.90
23723;DHT22;12042;52.136;5.584;2023-02-15T18:24:53;9.50;99.90
23723;DHT22;12042;52.136;5.584;2023-02-15T18:27:19;9.40;99.90
23723;DHT22;12042;52.136;5.584;2023-02-15T18:29:45;9.30;99.90
23723;DHT22;12042;52.136;5.584;2023-02-15T18:32:21;9.20;99.90
23723;DHT22;12042;52.136;5.584;2023-02-15T18:34:52;9.20;99.90
23723;DHT22;12042;52.136;5.584;2023-02-15T18:37:21;9.10;99.90
23723;DHT22;12042;52.136;5.584;2023-02-15T18:39:48;9.10;99.90
23723;DHT22;12042;52.136;5.584;2023-02-15T18:42:32;9.10;99.90
23723;DHT22;12042;52.136;5.584;2023-02-15T18:45:25;9.20;99.90
23723;DHT22;12042;52.136;5.584;2023-02-15T18:47:53;9.30;99.90
23723;DHT22;12042;52.136;5.584;2023-02-15T18:50:20;9.20;99.90
23723;DHT22;12042;52.136;5.584;2023-02-15T18:52:48;9.30;99.90
23723;DHT22;12042;52.136;5.584;2023-02-15T18:55:19;9.20;99.90
23723;DHT22;12042;52.136;5.584;2023-02-15T18:57:49;9.30;99.90
23723;DHT22;12042;52.136;5.584;2023-02-15T19:00:23;9.20;99.90
23723;DHT22;12042;52.136;5.584;2023-02-15T19:02:50;9.20;99.90
23723;DHT22;12042;52.136;5.584;2023-02-15T19:05:16;9.20;99.90
23723;DHT22;12042;52.136;5.584;2023-02-15T19:07:46;9.10;99.90
23723;DHT22;12042;52.136;5.584;2023-02-15T19:10:20;9.00;99.90
23723;DHT22;12042;52.136;5.584;2023-02-15T19:12:45;8.80;99.90
23723;DHT22;12042;52.136;5.584;2023-02-15T19:15:44;8.70;99.90
23723;DHT22;12042;52.136;5.584;2023-02-15T19:18:10;8.60;99.90
23723;DHT22;12042;52.136;5.584;2023-02-15T19:20:36;8.60;99.90
23723;DHT22;12042;52.136;5.584;2023-02-15T19:23:11;8.60;99.90
23723;DHT22;12042;52.136;5.584;2023-02-15T19:25:39;8.60;99.90
23723;DHT22;12042;52.136;5.584;2023-02-15T19:28:13;8.60;99.90
23723;DHT22;12042;52.136;5.584;2023-02-15T19:30:39;8.70;99.90
23723;DHT22;12042;52.136;5.584;2023-02-15T19:33:05;8.60;99.90
23723;DHT22;12042;52.136;5.584;2023-02-15T19:35:33;8.70;99.90
23723;DHT22;12042;52.136;5.584;2023-02-15T19:38:02;8.60;99.90
23723;DHT22;12042;52.136;5.584;2023-02-15T19:40:32;8.70;99.90
23723;DHT22;12042;52.136;5.584;2023-02-15T19:42:58;8.70;99.90
23723;DHT22;12042;52.136;5.584;2023-02-15T19:45:27;8.70;99.90
23723;DHT22;12042;52.136;5.584;2023-02-15T19:47:53;8.70;99.90
23723;DHT22;12042;52.136;5.584;2023-02-15T19:50:30;8.70;99.90
23723;DHT22;12042;52.136;5.584;2023-02-15T19:52:55;8.70;99.90
23723;DHT22;12042;52.136;5.584;2023-02-15T19:55:27;8.70;99.90
23723;DHT22;12042;52.136;5.584;2023-02-15T19:57:55;8.60;99.90
23723;DHT22;12042;52.136;5.584;2023-02-15T20:00:23;8.60;99.90
23723;DHT22;12042;52.136;5.584;2023-02-15T20:02:50;8.60;99.90
23723;DHT22;12042;52.136;5.584;2023-02-15T20:05:19;8.60;99.90
23723;DHT22;12042;52.136;5.584;2023-02-15T20:07:48;8.60;99.90
23723;DHT22;12042;52.136;5.584;2023-02-15T20:10:16;8.50;99.90
23723;DHT22;12042;52.136;5.584;2023-02-15T20:12:42;8.50;99.90
23723;DHT22;12042;52.136;5.584;2023-02-15T20:15:29;8.50;99.90
23723;DHT22;12042;52.136;5.584;2023-02-15T20:17:57;8.50;99.90
23723;DHT22;12042;52.136;5.584;2023-02-15T20:20:26;8.50;99.90
23723;DHT22;12042;52.136;5.584;2023-02-15T20:22:54;8.50;99.90
23723;DHT22;12042;52.136;5.584;2023-02-15T20:25:27;8.40;99.90
23723;DHT22;12042;52.136;5.584;2023-02-15T20:27:53;8.50;99.90
23723;DHT22;12042;52.136;5.584;2023-02-15T20:30:24;8.40;99.90
23723;DHT22;12042;52.136;5.584;2023-02-15T20:32:54;8.50;99.90
23723;DHT22;12042;52.136;5.584;2023-02-15T20:35:22;8.40;99.90
23723;DHT22;12042;52.136;5.584;2023-02-15T20:37:50;8.40;99.90
23723;DHT22;12042;52.136;5.584;2023-02-15T20:40:31;8.40;99.90
23723;DHT22;12042;52.136;5.584;2023-02-15T20:42:57;8.40;99.90
23723;DHT22;12042;52.136;5.584;2023-02-15T20:45:25;8.30;99.90
23723;DHT22;12042;52.136;5.584;2023-02-15T20:47:51;8.30;99.90
23723;DHT22;12042;52.136;5.584;2023-02-15T20:50:27;8.30;99.90
23723;DHT22;12042;52.136;5.584;2023-02-15T20:52:54;8.30;99.90
23723;DHT22;12042;52.136;5.584;2023-02-15T20:55:26;8.30;99.90
23723;DHT22;12042;52.136;5.584;2023-02-15T20:57:51;8.30;99.90
23723;DHT22;12042;52.136;5.584;2023-02-15T21:00:20;8.20;99.90
23723;DHT22;12042;52.136;5.584;2023-02-15T21:02:47;8.30;99.90
23723;DHT22;12042;52.136;5.584;2023-02-15T21:05:22;8.30;99.90
23723;DHT22;12042;52.136;5.584;2023-02-15T21:07:52;8.30;99.90
23723;DHT22;12042;52.136;5.584;2023-02-15T21:10:23;8.30;99.90
23723;DHT22;12042;52.136;5.584;2023-02-15T21:12:49;8.30;99.90
23723;DHT22;12042;52.136;5.584;2023-02-15T21:15:35;8.30;99.90
23723;DHT22;12042;52.136;5.584;2023-02-15T21:18:04;8.30;99.90
23723;DHT22;12042;52.136;5.584;2023-02-15T21:20:31;8.30;99.90
23723;DHT22;12042;52.136;5.584;2023-02-15T21:22:59;8.20;99.90
23723;DHT22;12042;52.136;5.584;2023-02-15T21:25:32;8.20;99.90
23723;DHT22;12042;52.136;5.584;2023-02-15T21:27:59;8.20;99.90
23723;DHT22;12042;52.136;5.584;2023-02-15T21:30:24;8.20;99.90
23723;DHT22;12042;52.136;5.584;2023-02-15T21:32:51;8.20;99.90
23723;DHT22;12042;52.136;5.584;2023-02-15T21:35:18;8.20;99.90
23723;DHT22;12042;52.136;5.584;2023-02-15T21:37:45;8.20;99.90
23723;DHT22;12042;52.136;5.584;2023-02-15T21:42:37;8.20;99.90
23723;DHT22;12042;52.136;5.584;2023-02-15T21:45:22;8.10;99.90
23723;DHT22;12042;52.136;5.584;2023-02-15T21:48:06;8.10;99.90
23723;DHT22;12042;52.136;5.584;2023-02-15T21:50:33;8.00;99.90
23723;DHT22;12042;52.136;5.584;2023-02-15T21:53:31;8.10;99.90
